Ainsworth, Nebraska
Current Conditions -  °F | °C
As of 7:15 PM on Friday 28 Nov 2014 (Local Time) from KANW Reporting Station
Clear Clear  
Wind Chill:   Ceiling: Unl
Heat Index:   Visibility: 10mi
Dew Point: -3°   Wind: 6mph
Humidity: 54%   Direction: 190°S
Pressure: 29.6"   Gusts: NA
Location:  42.55°N, 99.86°W
Report Text: KANW 290115Z AUTO 19005KT 10SM CLR 06/M03 A2960 RMK AO2 T00561031
Loading
Personal Weather Stations






























Interactive Weather Map New forecast layout! Learn more

10-Day Weather Forecast

Advertisements
Track Severe Weather on mobile